Time;durP1;ratioP1;P1;durP2;ratioP2;P2;SDS_P1;SDS_P2;PMS_P1;PMS_P2;Temp;Humidity;BMP_temperature;BMP_pressure;BME280_temperature;BME280_humidity;BME280_pressure;Samples;Min_cycle;Max_cycle;Signal;HPM_P1;HPM_P2
2022/06/08 00:00:50;;;;;;;8.02;4.88;;;11.40;99.90;;;;;;4943918;28;20142;-80
2022/06/08 00:03:23;;;;;;;10.98;4.95;;;11.40;99.90;;;;;;4961165;28;20062;-81
2022/06/08 00:05:49;;;;;;;10.10;5.70;;;11.30;99.90;;;;;;4984484;28;20054;-81
2022/06/08 00:08:14;;;;;;;7.78;4.95;;;11.30;99.90;;;;;;4963096;28;20050;-81
2022/06/08 00:10:40;;;;;;;7.93;5.32;;;11.30;99.90;;;;;;4946587;28;20046;-80
2022/06/08 00:13:06;;;;;;;8.05;4.97;;;11.30;99.90;;;;;;4968370;28;20046;-80
2022/06/08 00:15:32;;;;;;;9.23;6.15;;;11.30;99.90;;;;;;4966189;28;20045;-80
2022/06/08 00:17:58;;;;;;;8.07;5.07;;;11.30;99.90;;;;;;4969764;28;20559;-78
2022/06/08 00:20:24;;;;;;;7.93;5.00;;;11.30;99.90;;;;;;4983663;28;20125;-80
2022/06/08 00:22:53;;;;;;;8.13;5.13;;;11.30;99.90;;;;;;4984324;28;20050;-81
2022/06/08 00:25:20;;;;;;;6.97;5.20;;;11.20;99.90;;;;;;4967345;28;20047;-81
2022/06/08 00:27:45;;;;;;;9.15;5.90;;;11.20;99.90;;;;;;4983911;28;20055;-80
2022/06/08 00:30:11;;;;;;;6.85;4.82;;;11.20;99.90;;;;;;4947660;28;21660;-80
2022/06/08 00:32:37;;;;;;;11.10;6.00;;;11.20;99.90;;;;;;4968110;28;20046;-80
2022/06/08 00:35:04;;;;;;;9.00;5.82;;;11.20;99.90;;;;;;4966303;28;20057;-81
2022/06/08 00:37:30;;;;;;;9.38;5.88;;;11.10;99.90;;;;;;4961701;28;20060;-80
2022/06/08 00:39:55;;;;;;;9.38;6.10;;;11.20;99.90;;;;;;4968249;28;20046;-80
2022/06/08 00:42:22;;;;;;;9.88;6.07;;;11.10;99.90;;;;;;4952697;28;20046;-81
2022/06/08 00:44:51;;;;;;;9.40;6.20;;;11.10;99.90;;;;;;4948266;28;20105;-81
2022/06/08 00:47:22;;;;;;;7.05;5.78;;;11.20;99.90;;;;;;4965721;28;20058;-81
2022/06/08 00:49:52;;;;;;;8.70;6.20;;;11.20;99.90;;;;;;4947172;28;20058;-81
2022/06/08 00:52:18;;;;;;;9.90;6.43;;;11.20;99.90;;;;;;4967525;28;20142;-81
2022/06/08 00:54:53;;;;;;;10.02;6.43;;;11.20;99.90;;;;;;4966817;28;20046;-81
2022/06/08 00:57:38;;;;;;;9.32;6.60;;;11.20;99.90;;;;;;4953526;28;20050;-80
2022/06/08 01:00:15;;;;;;;10.85;6.05;;;11.30;99.90;;;;;;4967888;28;20582;-81
2022/06/08 01:02:41;;;;;;;10.07;5.95;;;11.30;99.90;;;;;;4949194;28;20869;-81
2022/06/08 01:05:31;;;;;;;11.25;7.05;;;11.20;99.90;;;;;;4934320;28;20043;-80
2022/06/08 01:08:03;;;;;;;10.57;6.60;;;11.20;99.90;;;;;;4949111;28;20404;-81
2022/06/08 01:10:51;;;;;;;9.43;6.72;;;11.20;99.90;;;;;;4961479;28;20488;-81
2022/06/08 01:13:18;;;;;;;8.52;6.63;;;11.20;99.90;;;;;;4965202;28;20084;-81
2022/06/08 01:15:44;;;;;;;10.98;6.30;;;11.20;99.90;;;;;;4980572;28;20082;-79
2022/06/08 01:18:11;;;;;;;8.70;6.60;;;11.20;99.90;;;;;;4940902;28;20073;-81
2022/06/08 01:20:48;;;;;;;8.10;6.65;;;11.20;99.90;;;;;;4939910;28;20042;-81
2022/06/08 01:23:16;;;;;;;9.82;6.88;;;11.20;99.90;;;;;;4962630;28;20053;-80
2022/06/08 01:26:08;;;;;;;9.82;7.13;;;11.20;99.90;;;;;;4964975;28;20054;-81
2022/06/08 01:28:45;;;;;;;9.10;7.07;;;11.30;99.90;;;;;;4945149;28;20050;-81
2022/06/08 01:31:33;;;;;;;9.90;6.88;;;11.30;99.90;;;;;;4981761;28;20125;-80
2022/06/08 01:34:22;;;;;;;10.35;6.93;;;11.30;99.90;;;;;;4962092;28;20140;-81
2022/06/08 01:37:08;;;;;;;9.98;7.22;;;11.30;99.90;;;;;;4982546;28;20054;-81
2022/06/08 01:40:06;;;;;;;9.20;7.90;;;11.40;99.90;;;;;;4948611;28;20479;-81
2022/06/08 01:42:34;;;;;;;10.13;7.70;;;11.40;99.90;;;;;;4966552;28;20053;-81
2022/06/08 01:45:33;;;;;;;13.35;7.72;;;11.40;99.90;;;;;;4981846;28;20050;-81
2022/06/08 01:48:29;;;;;;;11.27;8.30;;;11.40;99.90;;;;;;4966814;28;20046;-81
2022/06/08 01:50:57;;;;;;;11.13;8.77;;;11.50;99.90;;;;;;4981710;28;20128;-81
2022/06/08 01:53:25;;;;;;;10.80;8.43;;;11.50;99.90;;;;;;4961813;28;20050;-81
2022/06/08 01:56:21;;;;;;;11.00;8.65;;;11.60;99.90;;;;;;4982776;28;20130;-80
2022/06/08 01:59:04;;;;;;;9.65;7.55;;;11.60;99.90;;;;;;4947198;28;20165;-80
2022/06/08 02:01:55;;;;;;;11.35;8.38;;;11.70;99.90;;;;;;4967278;28;20051;-80
2022/06/08 02:04:49;;;;;;;10.43;8.00;;;11.70;99.90;;;;;;4952881;28;20118;-81
2022/06/08 02:07:39;;;;;;;10.98;7.60;;;11.70;99.90;;;;;;4982829;28;20138;-80
2022/06/08 02:10:13;;;;;;;8.73;6.90;;;11.80;99.90;;;;;;4982492;28;20050;-80
2022/06/08 02:12:43;;;;;;;10.68;8.57;;;11.80;99.90;;;;;;4965386;28;20127;-80
2022/06/08 02:15:16;;;;;;;10.52;7.65;;;11.80;99.90;;;;;;4966122;28;20574;-81
2022/06/08 02:17:48;;;;;;;10.55;8.45;;;11.80;99.90;;;;;;4967758;28;20053;-81
2022/06/08 02:20:36;;;;;;;10.60;8.50;;;11.80;99.90;;;;;;4967047;28;20097;-81
2022/06/08 02:23:28;;;;;;;11.40;8.38;;;11.80;99.90;;;;;;4984557;28;20043;-81
2022/06/08 02:26:01;;;;;;;10.93;8.38;;;11.80;99.90;;;;;;4983559;28;20125;-81
2022/06/08 02:28:33;;;;;;;9.85;7.90;;;11.80;99.90;;;;;;4980800;28;20052;-81
2022/06/08 02:31:22;;;;;;;12.27;8.95;;;11.90;99.90;;;;;;4967352;28;20038;-81
2022/06/08 02:36:56;;;;;;;9.73;7.38;;;11.90;99.90;;;;;;4967294;28;20066;-80
2022/06/08 02:39:28;;;;;;;12.13;8.88;;;11.90;99.90;;;;;;4984113;28;20137;-80
2022/06/08 02:42:03;;;;;;;11.57;8.27;;;11.90;99.90;;;;;;4966189;28;20046;-81
2022/06/08 02:44:32;;;;;;;10.40;7.40;;;11.90;99.90;;;;;;4961192;28;20496;-80
2022/06/08 02:47:05;;;;;;;9.88;7.32;;;11.80;99.90;;;;;;4984149;28;20101;-80
2022/06/08 02:49:36;;;;;;;11.35;7.70;;;11.90;99.90;;;;;;4981489;28;20042;-81
2022/06/08 02:52:11;;;;;;;9.77;8.35;;;11.90;99.90;;;;;;4968249;28;20472;-81
2022/06/08 02:54:36;;;;;;;10.32;7.93;;;11.90;99.90;;;;;;4951587;28;20583;-81
2022/06/08 02:57:19;;;;;;;12.57;8.10;;;11.90;99.90;;;;;;4967767;28;20129;-81
2022/06/08 02:59:57;;;;;;;11.15;7.63;;;11.80;99.90;;;;;;4968554;28;20683;-80
2022/06/08 03:02:32;;;;;;;12.57;8.63;;;11.90;99.90;;;;;;4968700;28;20058;-80
2022/06/08 03:05:01;;;;;;;9.38;7.35;;;11.80;99.90;;;;;;4984749;28;20222;-81
2022/06/08 03:07:33;;;;;;;9.32;7.78;;;11.80;99.90;;;;;;4948920;28;20050;-80
2022/06/08 03:10:05;;;;;;;8.73;7.32;;;11.80;99.90;;;;;;4971558;28;20046;-81
2022/06/08 03:12:38;;;;;;;9.32;7.88;;;11.70;99.90;;;;;;4954849;28;20489;-81
2022/06/08 03:15:07;;;;;;;12.52;8.00;;;11.70;99.90;;;;;;4981632;28;20085;-81
2022/06/08 03:17:35;;;;;;;12.85;7.95;;;11.70;99.90;;;;;;4963387;28;20484;-81
2022/06/08 03:20:04;;;;;;;10.73;9.50;;;11.70;99.90;;;;;;4964216;28;20050;-81
2022/06/08 03:22:30;;;;;;;8.82;7.60;;;11.50;99.90;;;;;;4969731;28;20049;-81
2022/06/08 03:24:55;;;;;;;10.88;7.93;;;11.70;99.90;;;;;;4986125;28;20913;-81
2022/06/08 03:27:21;;;;;;;11.25;8.35;;;11.70;99.90;;;;;;4971391;28;20038;-82
2022/06/08 03:29:47;;;;;;;9.95;8.10;;;11.70;99.90;;;;;;4948713;28;20058;-81
2022/06/08 03:32:13;;;;;;;14.07;8.60;;;11.70;99.90;;;;;;4984748;28;20124;-81
2022/06/08 03:34:38;;;;;;;10.30;8.38;;;11.70;99.90;;;;;;4944840;28;20054;-81
2022/06/08 03:37:05;;;;;;;11.50;7.93;;;11.70;99.90;;;;;;4950106;28;20100;-82
2022/06/08 03:39:31;;;;;;;10.73;8.27;;;11.80;99.90;;;;;;4985206;28;20050;-81
2022/06/08 03:41:56;;;;;;;12.25;8.55;;;11.80;99.90;;;;;;4985193;28;20128;-81
2022/06/08 03:44:22;;;;;;;11.00;8.38;;;11.80;99.90;;;;;;4986781;28;20042;-81
2022/06/08 03:46:53;;;;;;;12.15;8.65;;;11.80;99.90;;;;;;4976778;28;20114;-81
2022/06/08 03:49:20;;;;;;;12.00;8.32;;;11.60;99.90;;;;;;4955203;28;20042;-81
2022/06/08 03:51:46;;;;;;;9.77;8.07;;;11.90;99.90;;;;;;4970248;28;20165;-81
2022/06/08 03:54:16;;;;;;;9.73;8.50;;;11.90;99.90;;;;;;4964485;28;20186;-81
2022/06/08 03:56:45;;;;;;;11.38;8.57;;;11.90;99.90;;;;;;4970883;28;20057;-81
2022/06/08 03:59:11;;;;;;;11.93;8.40;;;12.00;99.90;;;;;;4964842;28;20042;-81
2022/06/08 04:01:37;;;;;;;10.82;8.00;;;12.00;99.90;;;;;;4965328;28;20058;-81
2022/06/08 04:04:04;;;;;;;13.60;9.38;;;12.10;99.90;;;;;;4987284;28;20057;-81
2022/06/08 04:06:29;;;;;;;11.05;8.77;;;12.10;99.90;;;;;;4955292;28;20133;-81
2022/06/08 04:08:55;;;;;;;9.73;8.50;;;12.20;99.90;;;;;;4953165;28;20077;-81
2022/06/08 04:11:21;;;;;;;14.05;9.52;;;12.20;99.90;;;;;;4980624;28;20420;-81
2022/06/08 04:13:47;;;;;;;12.95;9.43;;;12.30;99.90;;;;;;4986571;28;20533;-78
2022/06/08 04:16:13;;;;;;;12.65;9.43;;;12.30;99.90;;;;;;4964985;28;20101;-81
2022/06/08 04:18:38;;;;;;;12.77;9.20;;;12.40;99.90;;;;;;4953596;28;20050;-81
2022/06/08 04:21:08;;;;;;;14.68;9.40;;;12.40;99.90;;;;;;4970761;28;20561;-82
2022/06/08 04:23:35;;;;;;;9.95;8.48;;;12.50;99.90;;;;;;4962447;28;20049;-81
2022/06/08 04:26:01;;;;;;;11.65;9.18;;;12.50;99.90;;;;;;4985460;28;20058;-81
2022/06/08 04:28:28;;;;;;;11.40;9.52;;;12.60;99.90;;;;;;4945579;28;20054;-81
2022/06/08 04:30:54;;;;;;;12.27;9.85;;;12.60;99.90;;;;;;4959801;28;20125;-82
2022/06/08 04:33:19;;;;;;;11.95;10.02;;;12.70;99.90;;;;;;4968475;28;20562;-82
2022/06/08 04:35:46;;;;;;;11.93;9.70;;;12.70;99.90;;;;;;4964534;28;20050;-82
2022/06/08 04:38:12;;;;;;;12.18;10.30;;;12.80;99.90;;;;;;4970411;28;20504;-81
2022/06/08 04:40:38;;;;;;;12.00;9.45;;;12.80;99.90;;;;;;4964630;28;20500;-82
2022/06/08 04:43:04;;;;;;;12.77;10.65;;;12.90;99.90;;;;;;4971397;28;20178;-81
2022/06/08 04:45:30;;;;;;;12.13;10.27;;;12.90;99.90;;;;;;4988439;28;20149;-81
2022/06/08 04:47:56;;;;;;;12.60;10.20;;;13.00;99.90;;;;;;4954158;28;20058;-82
2022/06/08 04:50:21;;;;;;;12.15;10.27;;;13.00;99.90;;;;;;4963829;28;20043;-81
2022/06/08 04:52:48;;;;;;;13.65;9.73;;;13.00;99.90;;;;;;4944539;28;20059;-84
2022/06/08 04:55:15;;;;;;;12.73;9.60;;;13.00;99.90;;;;;;4983725;28;20096;-81
2022/06/08 04:57:41;;;;;;;12.48;10.00;;;13.00;99.90;;;;;;4947828;28;20061;-81
2022/06/08 05:00:11;;;;;;;13.38;9.80;;;13.10;99.90;;;;;;4962368;28;20428;-79
2022/06/08 05:02:44;;;;;;;14.77;9.95;;;13.10;99.90;;;;;;4983776;28;20070;-81
2022/06/08 05:05:21;;;;;;;13.75;10.55;;;13.20;99.90;;;;;;4985275;28;20436;-81
2022/06/08 05:07:47;;;;;;;13.23;9.98;;;13.30;99.90;;;;;;4952512;28;20046;-80
2022/06/08 05:10:14;;;;;;;13.38;10.70;;;13.30;99.90;;;;;;4967206;28;20038;-82
2022/06/08 05:12:41;;;;;;;14.23;11.15;;;13.40;99.90;;;;;;4965743;28;20106;-81
2022/06/08 05:15:11;;;;;;;13.93;10.70;;;13.40;99.90;;;;;;4985250;28;20145;-81
2022/06/08 05:17:36;;;;;;;17.48;10.95;;;13.50;99.90;;;;;;4967918;28;20928;-81
2022/06/08 05:20:04;;;;;;;12.93;10.68;;;13.60;99.90;;;;;;4919789;28;20057;-81
2022/06/08 05:22:30;;;;;;;14.38;10.95;;;13.70;99.90;;;;;;4945445;28;20456;-82
2022/06/08 05:24:56;;;;;;;16.52;11.95;;;13.70;99.90;;;;;;4974342;28;20055;-80
2022/06/08 05:27:22;;;;;;;14.23;11.55;;;13.80;99.90;;;;;;4966004;28;20161;-80
2022/06/08 05:29:48;;;;;;;18.00;11.65;;;13.90;99.90;;;;;;4961895;28;20140;-81
2022/06/08 05:32:14;;;;;;;17.02;11.77;;;14.00;99.90;;;;;;4984793;28;20050;-82
2022/06/08 05:34:40;;;;;;;17.20;12.77;;;14.10;99.90;;;;;;4969091;28;20046;-80
2022/06/08 05:37:06;;;;;;;13.55;11.60;;;14.20;99.90;;;;;;4966143;28;20547;-81
2022/06/08 05:39:31;;;;;;;15.90;11.80;;;14.30;99.90;;;;;;4971306;28;20046;-81
2022/06/08 05:41:57;;;;;;;18.58;12.45;;;14.40;99.90;;;;;;4849709;28;20107;-81
2022/06/08 05:44:23;;;;;;;16.65;12.85;;;14.50;99.90;;;;;;4964495;28;20424;-82
2022/06/08 05:46:50;;;;;;;19.73;12.55;;;14.60;99.90;;;;;;4986545;28;20115;-81
2022/06/08 05:49:17;;;;;;;16.95;12.02;;;14.70;99.90;;;;;;4986066;28;20042;-82
2022/06/08 05:51:43;;;;;;;17.42;11.70;;;14.80;99.90;;;;;;4953293;28;20042;-81
2022/06/08 05:54:10;;;;;;;18.30;13.05;;;14.90;99.90;;;;;;4953648;28;20042;-81
2022/06/08 05:56:37;;;;;;;16.30;11.95;;;15.00;99.90;;;;;;4969404;28;20177;-80
2022/06/08 05:59:04;;;;;;;17.48;12.65;;;15.10;99.90;;;;;;4967254;28;22670;-82
2022/06/08 06:01:31;;;;;;;18.52;12.95;;;15.20;99.90;;;;;;4968503;28;20049;-81
2022/06/08 06:03:59;;;;;;;16.42;11.73;;;15.20;99.90;;;;;;4968570;28;20058;-80
2022/06/08 06:06:25;;;;;;;17.75;12.35;;;15.30;99.90;;;;;;4964851;28;20121;-85
2022/06/08 06:08:51;;;;;;;17.63;12.43;;;15.40;99.90;;;;;;4951437;28;20050;-81
2022/06/08 06:11:16;;;;;;;16.45;11.90;;;15.50;99.90;;;;;;4949064;28;20047;-82
2022/06/08 06:13:43;;;;;;;15.85;11.27;;;15.60;99.90;;;;;;4967852;28;20050;-82
2022/06/08 06:16:09;;;;;;;13.90;11.38;;;15.60;99.90;;;;;;4964840;28;20073;-82
2022/06/08 06:18:35;;;;;;;14.93;11.10;;;15.70;99.90;;;;;;4986784;28;20054;-82
2022/06/08 06:21:01;;;;;;;15.85;11.18;;;15.80;99.90;;;;;;4946779;28;20096;-81
2022/06/08 06:23:29;;;;;;;16.15;10.77;;;15.90;99.90;;;;;;4971817;28;20069;-83
2022/06/08 06:25:55;;;;;;;15.77;10.50;;;16.00;99.90;;;;;;4967357;28;20108;-83
2022/06/08 06:28:22;;;;;;;14.10;10.68;;;16.10;99.90;;;;;;4972787;28;20542;-82
2022/06/08 06:30:48;;;;;;;13.65;10.25;;;16.20;99.90;;;;;;4973800;28;20050;-82
2022/06/08 06:33:15;;;;;;;12.52;9.27;;;16.20;99.90;;;;;;4971156;28;20042;-82
2022/06/08 06:35:42;;;;;;;13.20;9.07;;;16.30;99.90;;;;;;4951612;28;20173;-85
2022/06/08 06:38:09;;;;;;;14.95;9.73;;;16.30;99.90;;;;;;4998248;28;20061;-82
2022/06/08 06:40:36;;;;;;;12.77;8.80;;;16.40;99.90;;;;;;4961368;28;20046;-83
2022/06/08 06:43:03;;;;;;;10.70;7.90;;;16.40;99.90;;;;;;4965122;28;20415;-83
2022/06/08 06:45:29;;;;;;;11.93;8.93;;;16.40;99.90;;;;;;4957400;28;20082;-80
2022/06/08 06:47:55;;;;;;;13.52;9.07;;;16.40;99.90;;;;;;4971545;28;20451;-83
2022/06/08 06:50:23;;;;;;;11.40;8.65;;;16.40;99.90;;;;;;4966033;28;20566;-83
2022/06/08 06:52:49;;;;;;;11.80;8.60;;;16.40;99.90;;;;;;4950184;28;20046;-83
2022/06/08 06:55:28;;;;;;;11.77;9.00;;;16.40;99.90;;;;;;4988451;28;20046;-83
2022/06/08 06:57:55;;;;;;;11.43;8.93;;;16.40;99.90;;;;;;4990646;28;20396;-83
2022/06/08 07:00:21;;;;;;;12.98;9.32;;;16.50;99.90;;;;;;4977220;28;20050;-84
2022/06/08 07:02:47;;;;;;;11.05;8.88;;;16.50;99.90;;;;;;4974517;28;20080;-83
2022/06/08 07:05:18;;;;;;;11.32;8.35;;;16.60;99.90;;;;;;4936637;28;20500;-83
2022/06/08 07:07:44;;;;;;;13.48;8.73;;;16.70;99.90;;;;;;4969410;28;20057;-83
2022/06/08 07:10:11;;;;;;;10.20;8.02;;;16.90;99.90;;;;;;4952111;28;20050;-83
2022/06/08 07:12:36;;;;;;;12.73;8.20;;;17.00;99.90;;;;;;4982184;28;20105;-83
2022/06/08 07:15:03;;;;;;;9.27;7.85;;;17.20;99.90;;;;;;4991859;28;20054;-84
2022/06/08 07:17:28;;;;;;;11.82;8.23;;;17.20;99.90;;;;;;4992024;28;20050;-83
2022/06/08 07:19:54;;;;;;;10.55;7.65;;;17.40;99.90;;;;;;4935951;28;20104;-82
2022/06/08 07:22:20;;;;;;;10.80;6.88;;;17.50;99.90;;;;;;4975490;28;20046;-82
2022/06/08 07:24:46;;;;;;;8.43;7.07;;;17.60;99.90;;;;;;4950006;28;20050;-80
2022/06/08 07:27:11;;;;;;;9.82;7.97;;;17.70;99.90;;;;;;4958216;28;20050;-82
2022/06/08 07:29:38;;;;;;;8.40;6.47;;;17.80;99.90;;;;;;4968592;28;20125;-83
2022/06/08 07:32:05;;;;;;;7.97;6.35;;;18.00;99.90;;;;;;4985066;28;20480;-82
2022/06/08 07:34:31;;;;;;;9.55;6.10;;;18.00;99.90;;;;;;4968087;28;20046;-81
2022/06/08 07:36:57;;;;;;;10.00;6.68;;;18.20;99.90;;;;;;4950644;28;20054;-83
2022/06/08 07:39:24;;;;;;;9.95;6.50;;;18.30;99.90;;;;;;4975050;28;20560;-83
2022/06/08 07:41:49;;;;;;;7.53;5.72;;;18.30;99.90;;;;;;4967745;28;20408;-84
2022/06/08 07:44:17;;;;;;;8.43;5.57;;;18.40;99.90;;;;;;4991138;28;20108;-81
2022/06/08 07:46:43;;;;;;;7.45;5.63;;;18.50;99.90;;;;;;4973931;28;20085;-80
2022/06/08 07:51:59;;;;;;;6.22;4.95;;;18.70;99.90;;;;;;4981838;28;20050;-81
2022/06/08 07:54:27;;;;;;;5.95;5.13;;;18.70;99.90;;;;;;4974593;28;20050;-79
2022/06/08 07:56:54;;;;;;;6.80;5.20;;;18.90;99.90;;;;;;4966364;28;20064;-81
2022/06/08 07:59:22;;;;;;;6.55;4.70;;;18.90;99.90;;;;;;4991174;28;20050;-81
2022/06/08 08:01:48;;;;;;;8.00;4.30;;;19.10;99.90;;;;;;4971017;28;20059;-82
2022/06/08 08:04:14;;;;;;;6.72;4.28;;;19.20;99.90;;;;;;4971220;28;20086;-82
2022/06/08 08:06:40;;;;;;;6.25;3.85;;;19.20;99.90;;;;;;4947875;28;20043;-82
2022/06/08 08:09:09;;;;;;;8.70;4.57;;;19.10;99.90;;;;;;4929836;28;20110;-82
2022/06/08 08:11:37;;;;;;;6.72;3.95;;;19.10;99.90;;;;;;4979780;28;20508;-83
2022/06/08 08:14:02;;;;;;;5.78;4.43;;;19.30;99.90;;;;;;4923714;28;20050;-81
2022/06/08 08:16:28;;;;;;;4.68;3.88;;;19.60;99.90;;;;;;4978176;28;21431;-83
2022/06/08 08:18:54;;;;;;;4.80;3.90;;;19.90;99.90;;;;;;4947001;28;20080;-84
2022/06/08 08:21:20;;;;;;;6.85;4.43;;;20.10;99.90;;;;;;4985867;28;20153;-83
2022/06/08 08:23:45;;;;;;;7.63;3.92;;;20.20;99.90;;;;;;4954579;28;20047;-83
2022/06/08 08:26:11;;;;;;;6.60;3.53;;;20.30;99.90;;;;;;4971419;28;20054;-84
2022/06/08 08:28:37;;;;;;;5.35;3.55;;;20.60;99.90;;;;;;4932056;28;20061;-83
2022/06/08 08:31:04;;;;;;;6.13;3.70;;;20.60;99.90;;;;;;4970304;28;20057;-85
2022/06/08 08:33:30;;;;;;;5.85;3.50;;;20.70;99.90;;;;;;4923506;28;20043;-84
2022/06/08 08:35:58;;;;;;;4.65;3.58;;;20.80;99.90;;;;;;4910024;28;20081;-83
2022/06/08 08:38:24;;;;;;;6.10;3.35;;;20.70;99.90;;;;;;4979364;28;20492;-83
2022/06/08 08:40:55;;;;;;;3.85;2.97;;;20.60;99.90;;;;;;4939895;28;20051;-83
2022/06/08 08:43:24;;;;;;;4.82;3.33;;;20.50;99.90;;;;;;4965692;28;20047;-83
2022/06/08 08:46:05;;;;;;;4.97;3.33;;;20.40;99.90;;;;;;4971321;28;20113;-82
2022/06/08 08:48:51;;;;;;;6.53;4.10;;;20.30;99.90;;;;;;4938401;28;20059;-83
2022/06/08 08:51:34;;;;;;;6.40;3.85;;;20.20;99.90;;;;;;4969308;28;20106;-83
2022/06/08 08:54:05;;;;;;;5.32;3.28;;;20.10;99.90;;;;;;4970275;28;20377;-83
2022/06/08 08:56:35;;;;;;;5.70;3.80;;;20.00;99.90;;;;;;4934463;28;20050;-85
2022/06/08 08:59:03;;;;;;;6.38;3.38;;;20.00;99.90;;;;;;4969518;28;20177;-85
2022/06/08 09:01:34;;;;;;;4.80;3.55;;;20.00;99.90;;;;;;4954927;28;20078;-84
2022/06/08 09:04:05;;;;;;;5.70;4.00;;;20.10;99.90;;;;;;4974178;28;20403;-85
2022/06/08 09:06:33;;;;;;;4.63;3.60;;;20.40;99.90;;;;;;4956976;28;20452;-85
2022/06/08 09:09:03;;;;;;;5.53;3.50;;;20.80;99.90;;;;;;4964988;28;20057;-82
2022/06/08 09:11:34;;;;;;;5.35;3.60;;;21.10;99.90;;;;;;4989647;28;20049;-79
2022/06/08 09:14:13;;;;;;;5.85;3.33;;;21.10;99.90;;;;;;4972577;28;20077;-80
2022/06/08 09:16:51;;;;;;;5.68;3.70;;;21.20;99.90;;;;;;4989942;28;20192;-83
2022/06/08 09:19:36;;;;;;;5.38;3.78;;;21.40;99.90;;;;;;4972434;28;20054;-81
2022/06/08 09:22:08;;;;;;;5.60;3.70;;;21.50;99.90;;;;;;4988935;28;21284;-81
2022/06/08 09:24:50;;;;;;;6.20;3.72;;;21.70;99.90;;;;;;4956594;28;20085;-81
2022/06/08 09:27:23;;;;;;;5.60;3.75;;;21.70;99.90;;;;;;4955223;28;20050;-81
2022/06/08 09:29:53;;;;;;;4.65;3.50;;;21.80;99.90;;;;;;4973905;28;20414;-82
2022/06/08 09:32:27;;;;;;;4.00;3.00;;;21.80;99.90;;;;;;4988542;28;20594;-82
2022/06/08 09:34:57;;;;;;;3.70;2.63;;;22.20;99.90;;;;;;4956460;28;20096;-83
2022/06/08 09:37:24;;;;;;;4.60;2.97;;;22.40;99.90;;;;;;4979652;28;20258;-82
2022/06/08 09:39:51;;;;;;;4.47;3.25;;;22.40;99.90;;;;;;4972453;28;20057;-82
2022/06/08 09:42:39;;;;;;;4.40;3.03;;;22.40;99.90;;;;;;4986711;28;20046;-80
2022/06/08 09:45:22;;;;;;;4.53;3.30;;;22.40;99.90;;;;;;4972083;28;20046;-81
2022/06/08 09:54:12;;;;;;;5.75;2.70;;;22.60;99.90;;;;;;4966845;28;20108;-79
2022/06/08 09:56:48;;;;;;;4.05;2.95;;;22.50;99.90;;;;;;4931308;28;20118;-80
2022/06/08 09:59:37;;;;;;;4.30;2.92;;;22.50;99.90;;;;;;4966433;28;20042;-80
2022/06/08 10:02:02;;;;;;;4.50;3.03;;;22.50;99.90;;;;;;4968882;28;20046;-81
2022/06/08 10:04:35;;;;;;;4.40;2.95;;;22.60;99.90;;;;;;4967882;28;20140;-79
2022/06/08 10:07:12;;;;;;;6.03;3.50;;;22.80;99.90;;;;;;4956260;28;20050;-81
2022/06/08 10:10:03;;;;;;;4.10;3.38;;;23.10;99.90;;;;;;4952592;28;20060;-80
2022/06/08 10:12:48;;;;;;;5.28;3.63;;;23.50;99.90;;;;;;4948480;28;20047;-80
2022/06/08 10:15:34;;;;;;;4.97;3.20;;;24.10;99.90;;;;;;4962900;28;20081;-80
2022/06/08 10:18:25;;;;;;;4.68;3.10;;;23.50;99.90;;;;;;4985679;28;20424;-79
2022/06/08 10:20:59;;;;;;;5.22;3.00;;;24.20;99.90;;;;;;4984322;28;20077;-79
2022/06/08 10:23:39;;;;;;;4.10;3.08;;;23.80;99.90;;;;;;4962484;28;20550;-82
2022/06/08 10:26:15;;;;;;;5.50;3.05;;;23.80;99.90;;;;;;4951747;28;20101;-81
2022/06/08 10:28:46;;;;;;;;;;;23.90;99.90;;;;;;4948511;28;20093;-82
2022/06/08 10:31:44;;;;;;;4.63;2.85;;;24.00;99.90;;;;;;4951451;28;20041;-81
2022/06/08 10:34:24;;;;;;;4.70;3.00;;;23.90;99.90;;;;;;4957486;28;20054;-81
2022/06/08 10:37:18;;;;;;;6.18;3.28;;;23.60;99.90;;;;;;4974228;28;20054;-80
2022/06/08 10:39:47;;;;;;;6.15;4.00;;;23.20;99.90;;;;;;4973190;28;20620;-80
2022/06/08 10:42:40;;;;;;;5.05;3.90;;;22.90;99.90;;;;;;4987623;28;20046;-80
2022/06/08 10:45:24;;;;;;;5.43;4.00;;;22.60;99.90;;;;;;4970690;28;20051;-80
2022/06/08 10:48:23;;;;;;;5.88;4.20;;;22.20;99.90;;;;;;4973916;28;20046;-81
2022/06/08 10:51:10;;;;;;;6.22;3.10;;;22.00;99.90;;;;;;4975399;28;20046;-80
2022/06/08 10:56:50;;;;;;;4.85;2.78;;;22.00;99.90;;;;;;4973958;28;20042;-80
2022/06/08 10:59:20;;;;;;;4.97;3.60;;;21.90;99.90;;;;;;4966986;28;20081;-79
2022/06/08 11:02:18;;;;;;;4.53;3.45;;;22.00;99.90;;;;;;4958397;28;20600;-79
2022/06/08 11:05:05;;;;;;;4.68;3.40;;;22.00;99.90;;;;;;4974928;28;20046;-79
2022/06/08 11:08:06;;;;;;;5.28;3.97;;;22.10;99.90;;;;;;4991032;28;20145;-80
2022/06/08 11:10:44;;;;;;;6.13;4.28;;;22.20;99.90;;;;;;4968281;28;20408;-80
2022/06/08 11:13:19;;;;;;;5.70;4.63;;;22.20;99.90;;;;;;4967145;28;20050;-79
2022/06/08 11:16:19;;;;;;;4.65;4.15;;;22.30;99.90;;;;;;4967490;28;20105;-79
2022/06/08 11:19:04;;;;;;;5.05;4.10;;;22.40;99.90;;;;;;4975099;28;20085;-79
2022/06/08 11:21:38;;;;;;;7.50;4.50;;;22.60;99.90;;;;;;4990777;28;20081;-79
2022/06/08 11:24:17;;;;;;;6.05;5.10;;;22.60;99.90;;;;;;4991662;28;20384;-80
2022/06/08 11:26:48;;;;;;;6.20;4.82;;;22.60;99.90;;;;;;4974465;28;20057;-79
2022/06/08 11:29:17;;;;;;;6.85;4.93;;;22.50;99.90;;;;;;4974041;28;20101;-79
2022/06/08 11:31:42;;;;;;;5.88;4.43;;;22.50;99.90;;;;;;4984025;28;20085;-79
2022/06/08 11:34:17;;;;;;;4.95;4.45;;;22.50;99.90;;;;;;4974211;28;20046;-80
2022/06/08 11:36:50;;;;;;;8.02;6.07;;;22.60;99.90;;;;;;4991298;28;20047;-80
2022/06/08 11:39:37;;;;;;;5.28;4.78;;;22.50;99.90;;;;;;4974085;28;20054;-80
2022/06/08 11:42:29;;;;;;;6.43;5.35;;;22.30;99.90;;;;;;4957977;28;20443;-79
2022/06/08 11:45:13;;;;;;;6.68;5.20;;;22.30;99.90;;;;;;4991037;28;20404;-79
2022/06/08 11:47:52;;;;;;;7.32;5.85;;;22.20;99.90;;;;;;4974013;28;20050;-79
2022/06/08 11:50:47;;;;;;;10.88;6.55;;;22.00;99.90;;;;;;4972908;28;20054;-79
2022/06/08 11:53:20;;;;;;;6.65;5.90;;;21.90;99.90;;;;;;4970888;28;20058;-80
2022/06/08 11:55:52;;;;;;;7.80;5.68;;;21.80;99.90;;;;;;4974251;28;20066;-79
2022/06/08 11:58:23;;;;;;;8.15;6.57;;;21.80;99.90;;;;;;4989558;28;20058;-79
2022/06/08 12:00:55;;;;;;;7.28;5.47;;;21.60;99.90;;;;;;4957709;28;20058;-79
2022/06/08 12:03:40;;;;;;;7.05;5.40;;;21.50;99.90;;;;;;4956222;28;20058;-80
2022/06/08 12:06:19;;;;;;;7.22;5.47;;;21.50;99.90;;;;;;4954752;28;20092;-79
2022/06/08 12:09:10;;;;;;;7.63;4.80;;;21.50;99.90;;;;;;4953640;28;20129;-81
2022/06/08 12:11:41;;;;;;;6.97;5.28;;;21.50;99.90;;;;;;4947907;28;20065;-79
2022/06/08 12:14:18;;;;;;;6.18;5.10;;;21.50;99.90;;;;;;4970179;28;20081;-80
2022/06/08 12:17:25;;;;;;;7.78;5.15;;;21.50;99.90;;;;;;4953375;28;20114;-79
2022/06/08 12:19:56;;;;;;;5.95;4.28;;;21.30;99.90;;;;;;4970424;28;20054;-80
2022/06/08 12:22:29;;;;;;;6.68;3.30;;;21.00;99.90;;;;;;4961944;28;20055;-79
2022/06/08 12:25:22;;;;;;;7.20;4.22;;;20.90;99.90;;;;;;4970286;28;20058;-80
2022/06/08 12:27:59;;;;;;;10.02;5.85;;;20.60;99.90;;;;;;4954245;28;20054;-79
2022/06/08 12:30:34;;;;;;;11.10;7.35;;;20.30;99.90;;;;;;4969403;28;20137;-80
2022/06/08 12:33:24;;;;;;;13.60;8.38;;;19.80;99.90;;;;;;4953842;28;20046;-79
2022/06/08 12:36:18;;;;;;;13.20;7.60;;;19.40;99.90;;;;;;4950408;28;20058;-81
2022/06/08 12:39:01;;;;;;;7.47;4.40;;;19.10;99.90;;;;;;4937942;28;20051;-80
2022/06/08 12:41:43;;;;;;;6.50;3.83;;;18.90;99.90;;;;;;4969465;28;20050;-78
2022/06/08 12:44:26;;;;;;;11.82;3.92;;;18.70;99.90;;;;;;4970325;28;20054;-79
2022/06/08 12:46:59;;;;;;;6.03;2.50;;;18.70;99.90;;;;;;4963387;28;20404;-78
2022/06/08 12:49:41;;;;;;;5.15;1.70;;;18.70;99.90;;;;;;4969574;28;20556;-78
2022/06/08 12:52:27;;;;;;;3.85;1.38;;;18.60;99.90;;;;;;4930013;28;20094;-79
2022/06/08 12:54:53;;;;;;;2.30;1.30;;;18.50;99.90;;;;;;4930237;28;20560;-79
2022/06/08 12:57:22;;;;;;;4.57;1.65;;;18.50;99.90;;;;;;4968171;28;20049;-79
2022/06/08 12:59:52;;;;;;;3.00;1.33;;;18.40;99.90;;;;;;4969918;28;20058;-79
2022/06/08 13:02:21;;;;;;;3.53;1.60;;;18.50;99.90;;;;;;4953762;28;20047;-79
2022/06/08 13:04:49;;;;;;;2.42;1.40;;;18.50;99.90;;;;;;4953591;28;20059;-79
2022/06/08 13:07:18;;;;;;;4.28;1.80;;;18.50;99.90;;;;;;4945385;28;20111;-79
2022/06/08 13:09:44;;;;;;;4.53;1.70;;;18.50;99.90;;;;;;4953345;28;20529;-78
2022/06/08 13:12:14;;;;;;;5.60;1.70;;;18.50;99.90;;;;;;4945003;28;20046;-78
2022/06/08 13:14:41;;;;;;;4.18;1.50;;;18.60;99.90;;;;;;4969012;28;20515;-79
2022/06/08 13:17:09;;;;;;;3.67;1.33;;;18.60;99.90;;;;;;4953377;28;20050;-79
2022/06/08 13:19:35;;;;;;;2.22;1.30;;;18.70;99.90;;;;;;4967701;28;20047;-79
2022/06/08 13:22:01;;;;;;;2.63;1.40;;;18.70;99.90;;;;;;4945872;28;20051;-79